Time;durP1;ratioP1;P1;durP2;ratioP2;P2;SDS_P1;SDS_P2;PMS_P1;PMS_P2;Temp;Humidity;BMP_temperature;BMP_pressure;BME280_temperature;BME280_humidity;BME280_pressure;Samples;Min_cycle;Max_cycle;Signal;HPM_P1;HPM_P2
2024/01/18 00:01:07;;;;;;;7.38;3.25;;;-0.20;99.90;;;;;;5073442;28;20036;-73
2024/01/18 00:03:37;;;;;;;6.57;3.00;;;-0.30;99.90;;;;;;5073725;28;20749;-75
2024/01/18 00:06:03;;;;;;;4.90;2.63;;;-0.30;99.90;;;;;;5073556;28;20105;-76
2024/01/18 00:08:29;;;;;;;3.85;2.42;;;-0.10;99.90;;;;;;5073010;28;20088;-76
2024/01/18 00:10:55;;;;;;;4.28;2.22;;;-0.20;99.90;;;;;;5091354;28;20044;-75
2024/01/18 00:13:21;;;;;;;8.25;2.08;;;-0.10;99.90;;;;;;5091659;28;20085;-75
2024/01/18 00:15:46;;;;;;;4.50;2.10;;;-0.30;99.90;;;;;;5091398;28;20032;-75
2024/01/18 00:18:12;;;;;;;7.05;1.77;;;-0.10;99.90;;;;;;5091281;28;20048;-73
2024/01/18 00:20:37;;;;;;;9.95;3.08;;;-0.10;99.90;;;;;;5091392;28;20043;-73
2024/01/18 00:23:03;;;;;;;3.22;1.55;;;-0.30;99.90;;;;;;5091276;28;20050;-73
2024/01/18 00:25:29;;;;;;;3.70;1.52;;;-0.20;99.90;;;;;;5073168;28;20039;-74
2024/01/18 00:27:54;;;;;;;3.90;2.13;;;-0.40;99.90;;;;;;5073452;28;20475;-73
2024/01/18 00:30:20;;;;;;;3.17;1.40;;;-0.20;99.90;;;;;;5056281;28;20036;-73
2024/01/18 00:32:45;;;;;;;5.45;1.80;;;-0.10;99.90;;;;;;5073396;28;20440;-74
2024/01/18 00:35:11;;;;;;;8.40;2.47;;;-0.20;99.90;;;;;;5073269;28;20111;-73
2024/01/18 00:37:37;;;;;;;4.57;1.90;;;-0.30;99.90;;;;;;5073111;28;20070;-73
2024/01/18 00:40:03;;;;;;;5.28;2.63;;;-0.40;99.90;;;;;;5091363;28;20072;-73
2024/01/18 00:42:28;;;;;;;4.25;2.03;;;-0.30;99.90;;;;;;5091324;28;20050;-73
2024/01/18 00:44:54;;;;;;;7.43;2.70;;;-0.40;99.90;;;;;;5074057;28;20072;-73
2024/01/18 00:47:19;;;;;;;6.45;2.58;;;-0.20;99.90;;;;;;5076495;28;20075;-73
2024/01/18 00:49:45;;;;;;;7.55;3.78;;;-0.40;99.90;;;;;;5094656;28;20115;-73
2024/01/18 00:52:11;;;;;;;5.45;3.42;;;-0.30;99.90;;;;;;5059772;28;20036;-74
2024/01/18 00:54:36;;;;;;;10.55;3.50;;;-0.30;99.90;;;;;;5094609;28;20047;-73
2024/01/18 00:57:02;;;;;;;9.52;5.05;;;-0.20;99.90;;;;;;5076204;28;20040;-74
2024/01/18 00:59:28;;;;;;;9.00;4.47;;;-0.20;99.90;;;;;;5076178;28;20113;-74
2024/01/18 01:01:54;;;;;;;5.40;4.32;;;-0.30;99.90;;;;;;5076356;28;20055;-73
2024/01/18 01:04:19;;;;;;;5.93;4.63;;;-0.40;99.90;;;;;;5076373;28;20051;-73
2024/01/18 01:06:45;;;;;;;6.15;4.32;;;-0.30;99.90;;;;;;5094140;28;20419;-73
2024/01/18 01:09:11;;;;;;;7.40;4.32;;;-0.40;99.90;;;;;;5076408;28;20399;-73
2024/01/18 01:11:37;;;;;;;9.32;5.03;;;-0.30;99.90;;;;;;5094398;28;20036;-74
2024/01/18 01:14:02;;;;;;;7.68;3.80;;;-0.30;99.90;;;;;;5094482;28;20629;-73
2024/01/18 01:16:28;;;;;;;7.28;3.83;;;-0.50;99.90;;;;;;5094378;28;20450;-73
2024/01/18 01:18:53;;;;;;;8.55;4.40;;;-0.40;99.90;;;;;;5059352;28;20043;-74
2024/01/18 01:21:19;;;;;;;8.43;4.32;;;-0.50;99.90;;;;;;5094159;28;20131;-73
2024/01/18 01:23:48;;;;;;;8.77;3.78;;;-0.40;99.90;;;;;;5076080;28;20537;-73
2024/01/18 01:26:15;;;;;;;9.95;3.92;;;-0.30;99.90;;;;;;5076214;28;20436;-73
2024/01/18 01:28:42;;;;;;;6.95;3.38;;;-0.30;99.90;;;;;;5075707;28;20058;-73
2024/01/18 01:31:07;;;;;;;6.55;3.35;;;-0.30;99.90;;;;;;5093884;28;20066;-73
2024/01/18 01:33:33;;;;;;;7.03;2.88;;;-0.40;99.90;;;;;;5075759;28;20036;-73
2024/01/18 01:35:58;;;;;;;7.03;2.95;;;-0.30;99.90;;;;;;5093602;28;20032;-73
2024/01/18 01:38:24;;;;;;;5.80;3.03;;;-0.20;99.90;;;;;;5075540;28;20036;-73
2024/01/18 01:40:50;;;;;;;4.15;2.22;;;-0.40;99.90;;;;;;5093915;28;20115;-73
2024/01/18 01:43:16;;;;;;;8.65;2.60;;;-0.20;99.90;;;;;;5093930;28;20118;-73
2024/01/18 01:45:43;;;;;;;3.70;1.98;;;-0.50;99.90;;;;;;5093734;28;20048;-73
2024/01/18 01:48:08;;;;;;;5.88;2.05;;;-0.30;99.90;;;;;;5075274;28;20078;-73
2024/01/18 01:50:37;;;;;;;6.93;2.47;;;-0.40;99.90;;;;;;5075320;28;20071;-73
2024/01/18 01:53:04;;;;;;;6.22;2.20;;;-0.40;99.90;;;;;;5058676;28;20519;-73
2024/01/18 01:55:31;;;;;;;6.55;2.03;;;-0.30;99.90;;;;;;5074955;28;20565;-73
2024/01/18 01:57:58;;;;;;;4.20;2.10;;;-0.40;99.90;;;;;;5092629;28;20036;-73
2024/01/18 02:00:24;;;;;;;5.55;2.40;;;-0.20;99.90;;;;;;5093238;28;20044;-73
2024/01/18 02:02:51;;;;;;;3.55;2.05;;;-0.40;99.90;;;;;;5093270;28;20075;-73
2024/01/18 02:05:18;;;;;;;3.85;1.95;;;-0.40;99.90;;;;;;5075087;28;20685;-75
2024/01/18 02:07:44;;;;;;;4.90;1.98;;;-0.30;99.90;;;;;;5093291;28;20044;-76
2024/01/18 02:10:10;;;;;;;6.13;2.30;;;-0.20;99.90;;;;;;5074721;28;20085;-76
2024/01/18 02:12:36;;;;;;;4.97;1.70;;;-0.40;99.90;;;;;;5075093;28;20044;-76
2024/01/18 02:15:02;;;;;;;5.00;1.60;;;-0.30;99.90;;;;;;5074794;28;20043;-75
2024/01/18 02:17:28;;;;;;;3.95;1.38;;;-0.40;99.90;;;;;;5074689;28;20036;-76
2024/01/18 02:19:54;;;;;;;4.75;1.70;;;-0.30;99.90;;;;;;5093031;28;20036;-76
2024/01/18 02:22:24;;;;;;;6.10;2.22;;;-0.20;99.90;;;;;;5092866;28;20044;-76
2024/01/18 02:24:51;;;;;;;5.30;2.20;;;-0.40;99.90;;;;;;5074773;28;20036;-76
2024/01/18 02:27:19;;;;;;;5.63;1.70;;;-0.40;99.90;;;;;;5074526;28;20044;-76
2024/01/18 02:29:45;;;;;;;5.18;1.77;;;-0.50;99.90;;;;;;5074775;28;20048;-76
2024/01/18 02:32:10;;;;;;;3.33;1.30;;;-0.50;99.90;;;;;;5057839;28;20050;-76
2024/01/18 02:34:40;;;;;;;5.05;1.02;;;-0.40;99.90;;;;;;5092914;28;20403;-76
2024/01/18 02:37:09;;;;;;;1.83;1.20;;;-0.50;99.90;;;;;;5074362;28;20047;-76
2024/01/18 02:39:36;;;;;;;4.32;1.17;;;-0.60;99.90;;;;;;5092625;28;20047;-76
2024/01/18 02:42:02;;;;;;;3.17;1.13;;;-0.50;99.90;;;;;;5074459;28;20047;-76
2024/01/18 02:44:28;;;;;;;8.50;1.85;;;-0.40;99.90;;;;;;5074252;28;20036;-76
2024/01/18 02:46:54;;;;;;;7.88;2.47;;;-0.30;99.90;;;;;;5074302;28;20439;-75
2024/01/18 02:49:19;;;;;;;2.72;1.60;;;-0.50;99.90;;;;;;5074115;28;20410;-75
2024/01/18 02:51:45;;;;;;;3.78;1.20;;;-0.40;99.90;;;;;;5092447;28;20036;-75
2024/01/18 02:54:11;;;;;;;2.90;1.10;;;-0.30;99.90;;;;;;5074152;28;20035;-76
2024/01/18 02:56:40;;;;;;;4.50;1.08;;;-0.30;99.90;;;;;;5073934;28;20115;-76
2024/01/18 02:59:06;;;;;;;3.63;1.55;;;-0.50;99.90;;;;;;5074055;28;20086;-76
2024/01/18 03:01:32;;;;;;;4.38;1.05;;;-0.30;99.90;;;;;;5074051;28;20496;-76
2024/01/18 03:03:57;;;;;;;8.40;1.30;;;-0.30;99.90;;;;;;5092271;28;20071;-75
2024/01/18 03:06:23;;;;;;;2.63;1.05;;;-0.50;99.90;;;;;;5092072;28;20462;-75
2024/01/18 03:08:49;;;;;;;3.70;1.42;;;-0.40;99.90;;;;;;5073448;28;20032;-75
2024/01/18 03:11:15;;;;;;;2.83;1.10;;;-0.50;99.90;;;;;;5091884;28;20093;-76
2024/01/18 03:13:41;;;;;;;5.57;1.15;;;-0.40;99.90;;;;;;5089977;28;20498;-73
2024/01/18 03:16:07;;;;;;;2.35;0.95;;;-0.70;99.90;;;;;;5049745;28;20042;-73
2024/01/18 03:18:34;;;;;;;2.70;1.10;;;-0.70;99.90;;;;;;5073478;28;20027;-73
2024/01/18 03:21:00;;;;;;;3.50;0.90;;;-0.40;99.90;;;;;;5073831;28;20043;-76
2024/01/18 03:23:25;;;;;;;6.82;0.73;;;-0.70;99.90;;;;;;5074083;28;20450;-75
2024/01/18 03:25:51;;;;;;;3.58;1.65;;;-0.40;99.90;;;;;;5073860;28;20412;-76
2024/01/18 03:28:16;;;;;;;1.88;0.73;;;-0.40;99.90;;;;;;5056626;28;20039;-76
2024/01/18 03:30:42;;;;;;;6.43;1.92;;;-0.60;99.90;;;;;;5073593;28;20410;-75
2024/01/18 03:33:08;;;;;;;3.10;1.00;;;-0.60;99.90;;;;;;5092040;28;20032;-75
2024/01/18 03:35:33;;;;;;;4.72;0.75;;;-0.60;99.90;;;;;;5091728;28;20042;-75
2024/01/18 03:37:59;;;;;;;6.53;1.23;;;-0.40;99.90;;;;;;5091690;28;20036;-76
2024/01/18 03:40:24;;;;;;;6.55;1.60;;;-0.60;99.90;;;;;;5073696;28;20044;-76
2024/01/18 03:42:50;;;;;;;2.70;0.93;;;-0.70;99.90;;;;;;5091563;28;20043;-73
2024/01/18 03:45:16;;;;;;;2.53;0.60;;;-0.70;99.90;;;;;;5091536;28;20093;-73
2024/01/18 03:47:42;;;;;;;5.15;1.38;;;-0.70;99.90;;;;;;5091601;28;20036;-73
2024/01/18 03:50:08;;;;;;;3.42;1.00;;;-0.70;99.90;;;;;;5073445;28;20044;-73
2024/01/18 03:52:34;;;;;;;5.97;0.73;;;-0.50;99.90;;;;;;5073626;28;20040;-73
2024/01/18 03:54:59;;;;;;;3.13;1.45;;;-0.50;99.90;;;;;;5073225;28;20059;-73
2024/01/18 03:57:25;;;;;;;5.90;0.80;;;-0.40;99.90;;;;;;5073197;28;20032;-73
2024/01/18 03:59:51;;;;;;;5.55;1.35;;;-0.50;99.90;;;;;;5091547;28;20039;-73
2024/01/18 04:02:16;;;;;;;7.70;0.98;;;-0.70;99.90;;;;;;5073428;28;20090;-73
2024/01/18 04:04:42;;;;;;;1.90;0.70;;;-0.40;99.90;;;;;;5091531;28;20036;-73
2024/01/18 04:07:08;;;;;;;4.85;0.70;;;-0.30;99.90;;;;;;5091346;28;20043;-73
2024/01/18 04:09:33;;;;;;;3.75;1.27;;;-0.40;99.90;;;;;;5091301;28;20044;-73
2024/01/18 04:11:59;;;;;;;5.93;1.75;;;-0.30;99.90;;;;;;5073119;28;20036;-73
2024/01/18 04:14:25;;;;;;;1.65;0.60;;;-0.50;99.90;;;;;;5091341;28;20657;-73
2024/01/18 04:16:50;;;;;;;5.85;0.80;;;-0.30;99.90;;;;;;5072931;28;20086;-73
2024/01/18 04:19:16;;;;;;;4.38;1.40;;;-0.40;99.90;;;;;;5079557;28;20028;-73
2024/01/18 04:21:42;;;;;;;5.50;0.90;;;-0.50;99.90;;;;;;5075072;28;20554;-73
2024/01/18 04:24:10;;;;;;;5.88;1.60;;;-0.60;99.90;;;;;;5073807;28;20044;-73
2024/01/18 04:26:35;;;;;;;4.07;1.00;;;-0.40;99.90;;;;;;5074745;28;20048;-73
2024/01/18 04:29:01;;;;;;;2.35;0.90;;;-0.40;99.90;;;;;;5074594;28;20044;-73
2024/01/18 04:31:27;;;;;;;2.67;1.30;;;-0.60;99.90;;;;;;5056804;28;20043;-73
2024/01/18 04:33:55;;;;;;;6.35;1.50;;;-0.30;99.90;;;;;;5073634;28;20119;-73
2024/01/18 04:36:20;;;;;;;2.00;1.15;;;-0.50;99.90;;;;;;5073625;28;20101;-73
2024/01/18 04:38:46;;;;;;;2.80;0.95;;;-0.30;99.90;;;;;;5073147;28;20524;-73
2024/01/18 04:41:12;;;;;;;3.80;0.88;;;-0.30;99.90;;;;;;5056588;28;20127;-73
2024/01/18 04:43:37;;;;;;;3.30;1.42;;;-0.60;99.90;;;;;;5074547;28;20075;-73
2024/01/18 04:46:04;;;;;;;4.55;1.63;;;-0.20;99.90;;;;;;5075741;28;20048;-72
2024/01/18 04:48:30;;;;;;;7.95;2.45;;;-0.40;99.90;;;;;;5076463;28;20449;-72
2024/01/18 04:50:57;;;;;;;2.83;1.13;;;-0.40;99.90;;;;;;5076469;28;20044;-73
2024/01/18 04:53:22;;;;;;;8.57;1.63;;;-0.40;99.90;;;;;;5094761;28;20043;-72
2024/01/18 04:55:48;;;;;;;6.88;1.20;;;-0.10;99.90;;;;;;5094524;28;20036;-72
2024/01/18 04:58:14;;;;;;;4.30;1.33;;;-0.30;99.90;;;;;;5076367;28;20032;-73
2024/01/18 05:00:40;;;;;;;1.15;0.70;;;-0.40;99.90;;;;;;5094404;28;20046;-72
2024/01/18 05:03:07;;;;;;;3.63;1.23;;;-0.20;99.90;;;;;;5076462;28;20032;-72
2024/01/18 05:05:33;;;;;;;2.15;1.10;;;-0.40;99.90;;;;;;5094487;28;20036;-72
2024/01/18 05:07:58;;;;;;;2.42;1.35;;;-0.40;99.90;;;;;;5076220;28;20046;-72
2024/01/18 05:10:24;;;;;;;3.05;1.40;;;-0.20;99.90;;;;;;5075903;28;20039;-72
2024/01/18 05:12:51;;;;;;;3.30;1.88;;;-0.30;99.90;;;;;;5076102;28;20500;-72
2024/01/18 05:15:18;;;;;;;4.95;1.65;;;-0.30;99.90;;;;;;5092889;28;20032;-72
2024/01/18 05:17:46;;;;;;;3.88;1.40;;;-0.50;99.90;;;;;;5094240;28;20089;-72
2024/01/18 05:20:12;;;;;;;4.00;1.55;;;-0.50;99.90;;;;;;5076033;28;20119;-75
2024/01/18 05:22:38;;;;;;;4.38;1.50;;;-0.60;99.90;;;;;;5075952;28;20641;-75
2024/01/18 05:25:05;;;;;;;1.30;1.02;;;-0.60;99.90;;;;;;5093875;28;20152;-75
2024/01/18 05:27:30;;;;;;;4.82;1.38;;;-0.70;99.90;;;;;;5094174;28;20036;-75
2024/01/18 05:29:57;;;;;;;2.50;1.10;;;-0.40;99.90;;;;;;5075769;28;20028;-75
2024/01/18 05:32:23;;;;;;;1.75;1.13;;;-0.40;99.90;;;;;;5075667;28;20043;-75
2024/01/18 05:34:52;;;;;;;3.88;1.08;;;-0.60;99.90;;;;;;5093930;28;20121;-75
2024/01/18 05:37:18;;;;;;;2.83;0.98;;;-0.70;99.90;;;;;;5075710;28;20036;-75
2024/01/18 05:39:44;;;;;;;3.95;0.80;;;-0.50;99.90;;;;;;5075615;28;20094;-75
2024/01/18 05:42:10;;;;;;;2.85;0.80;;;-0.50;99.90;;;;;;5093949;28;20518;-75
2024/01/18 05:44:36;;;;;;;2.08;0.82;;;-0.70;99.90;;;;;;5059155;28;20403;-75
2024/01/18 05:47:02;;;;;;;1.33;0.75;;;-0.70;99.90;;;;;;5075340;28;20043;-75
2024/01/18 05:49:28;;;;;;;1.88;0.40;;;-0.40;99.90;;;;;;5075456;28;20045;-75
2024/01/18 05:51:54;;;;;;;3.10;0.65;;;-0.50;99.90;;;;;;5075442;28;20048;-75
2024/01/18 05:54:19;;;;;;;1.30;0.73;;;-0.60;99.90;;;;;;5075207;28;20118;-75
2024/01/18 05:56:46;;;;;;;5.30;0.60;;;-0.70;99.90;;;;;;5075015;28;20036;-75
2024/01/18 05:59:12;;;;;;;7.10;1.30;;;-0.30;99.90;;;;;;5075346;28;20047;-75
2024/01/18 06:01:38;;;;;;;1.85;0.90;;;-0.60;99.90;;;;;;5075468;28;20036;-75
2024/01/18 06:04:04;;;;;;;1.85;0.57;;;-0.30;99.90;;;;;;5093353;28;20075;-75
2024/01/18 06:06:31;;;;;;;2.85;0.60;;;-0.70;99.90;;;;;;5075070;28;20111;-75
2024/01/18 06:08:57;;;;;;;2.80;0.77;;;-0.30;99.90;;;;;;5057779;28;20078;-75
2024/01/18 06:11:24;;;;;;;1.05;0.43;;;-0.40;99.90;;;;;;5093108;28;20087;-75
2024/01/18 06:13:50;;;;;;;4.93;1.73;;;-0.60;99.90;;;;;;5093321;28;20459;-75
2024/01/18 06:16:15;;;;;;;2.67;0.68;;;-0.60;99.90;;;;;;5074970;28;20086;-75
2024/01/18 06:18:45;;;;;;;4.28;0.70;;;-0.20;99.90;;;;;;5074716;28;20487;-75
2024/01/18 06:21:11;;;;;;;1.80;0.68;;;-0.40;99.90;;;;;;5075342;28;20079;-73
2024/01/18 06:23:37;;;;;;;4.68;0.82;;;-0.50;99.90;;;;;;5058363;28;20044;-73
2024/01/18 06:26:07;;;;;;;3.65;0.88;;;-0.50;99.90;;;;;;5074828;28;20048;-73
2024/01/18 06:28:33;;;;;;;3.00;0.90;;;-0.60;99.90;;;;;;5074509;28;20088;-73
2024/01/18 06:30:58;;;;;;;4.22;0.70;;;-0.60;99.90;;;;;;5092818;28;20044;-73
2024/01/18 06:33:26;;;;;;;1.25;0.50;;;-0.50;99.90;;;;;;5092746;28;20181;-73
2024/01/18 06:35:52;;;;;;;2.78;0.85;;;-0.60;99.90;;;;;;5074416;28;20082;-73
2024/01/18 06:38:20;;;;;;;4.32;0.80;;;-0.30;99.90;;;;;;5073926;28;20036;-73
2024/01/18 06:40:46;;;;;;;3.20;0.82;;;-0.60;99.90;;;;;;5074624;28;20046;-73
2024/01/18 06:43:11;;;;;;;1.45;0.40;;;-0.30;99.90;;;;;;5074060;28;20093;-73
2024/01/18 06:45:37;;;;;;;3.40;0.60;;;-0.60;99.90;;;;;;5074295;28;20044;-73
2024/01/18 06:48:03;;;;;;;2.95;1.00;;;-0.60;99.90;;;;;;5074226;28;20082;-73
2024/01/18 06:50:28;;;;;;;1.77;0.60;;;-0.50;99.90;;;;;;5074311;28;20043;-73
2024/01/18 06:52:54;;;;;;;0.85;0.47;;;-0.60;99.90;;;;;;5074168;28;20040;-75
2024/01/18 06:55:21;;;;;;;8.27;0.52;;;-0.50;99.90;;;;;;5073876;28;20067;-75
2024/01/18 06:57:48;;;;;;;1.15;0.60;;;-0.30;99.90;;;;;;5073995;28;20048;-75
2024/01/18 07:00:14;;;;;;;5.07;0.68;;;-0.40;99.90;;;;;;5074027;28;20047;-77
2024/01/18 07:02:40;;;;;;;1.83;0.85;;;-0.60;99.90;;;;;;5074232;28;20032;-75
2024/01/18 07:05:06;;;;;;;3.97;1.58;;;-0.60;99.90;;;;;;5073783;28;20122;-75
2024/01/18 07:07:32;;;;;;;5.93;1.42;;;-0.30;99.90;;;;;;5073688;28;20032;-75
2024/01/18 07:09:57;;;;;;;3.97;0.85;;;-0.50;99.90;;;;;;5091950;28;20047;-75
2024/01/18 07:12:24;;;;;;;5.57;1.00;;;-0.40;99.90;;;;;;5073845;28;20119;-78
2024/01/18 07:14:50;;;;;;;2.10;0.93;;;-0.60;99.90;;;;;;5057448;28;20251;-75
2024/01/18 07:17:16;;;;;;;3.25;1.67;;;-0.50;99.90;;;;;;5091896;28;20528;-75
2024/01/18 07:19:42;;;;;;;5.38;1.50;;;-0.60;99.90;;;;;;5092017;28;20116;-75
2024/01/18 07:22:08;;;;;;;3.50;1.60;;;-0.30;99.90;;;;;;5057007;28;20185;-75
2024/01/18 07:24:34;;;;;;;4.38;0.95;;;-0.30;99.90;;;;;;5092093;28;20052;-75
2024/01/18 07:26:59;;;;;;;4.13;1.48;;;-0.50;99.90;;;;;;5090798;28;20525;-75
2024/01/18 07:29:25;;;;;;;4.45;1.40;;;-0.40;99.90;;;;;;5091584;28;20047;-75
2024/01/18 07:31:50;;;;;;;2.03;0.90;;;-0.30;99.90;;;;;;5073826;28;20059;-75
2024/01/18 07:34:16;;;;;;;6.10;0.70;;;-0.10;99.90;;;;;;5073734;28;20028;-75
2024/01/18 07:36:43;;;;;;;2.10;0.88;;;-0.30;99.90;;;;;;5072976;28;20534;-75
2024/01/18 07:39:10;;;;;;;1.70;0.75;;;0.00;99.90;;;;;;5073866;28;20395;-76
2024/01/18 07:41:36;;;;;;;2.70;1.10;;;-0.10;99.90;;;;;;5073951;28;20513;-75
2024/01/18 07:44:02;;;;;;;4.15;1.33;;;-0.10;99.90;;;;;;5073993;28;20515;-75
2024/01/18 07:46:27;;;;;;;3.20;1.50;;;0.20;99.90;;;;;;5091837;28;20078;-75
2024/01/18 07:48:53;;;;;;;2.13;1.10;;;-0.10;99.90;;;;;;5074507;28;20044;-76
2024/01/18 07:51:19;;;;;;;3.05;1.23;;;0.00;99.90;;;;;;5057338;28;20040;-76
2024/01/18 07:53:44;;;;;;;2.97;1.33;;;0.10;99.90;;;;;;5092086;28;20036;-75
2024/01/18 07:56:11;;;;;;;3.78;1.08;;;0.10;99.90;;;;;;5074017;28;20123;-75
2024/01/18 07:58:40;;;;;;;3.72;1.00;;;0.40;99.90;;;;;;5091102;28;20036;-74
2024/01/18 08:01:06;;;;;;;5.03;1.20;;;0.50;99.90;;;;;;5074987;28;20488;-76
2024/01/18 08:03:32;;;;;;;1.95;1.23;;;0.40;99.90;;;;;;5074430;28;20459;-74
2024/01/18 08:05:57;;;;;;;2.30;1.23;;;0.20;99.90;;;;;;5077939;28;20174;-74
2024/01/18 08:08:23;;;;;;;6.22;1.92;;;0.40;99.90;;;;;;5077640;28;20035;-74
2024/01/18 08:10:49;;;;;;;5.05;1.92;;;0.30;99.90;;;;;;5077664;28;20061;-74
2024/01/18 08:13:14;;;;;;;1.92;1.25;;;0.30;99.90;;;;;;5095564;28;20032;-74
2024/01/18 08:15:41;;;;;;;3.35;1.30;;;0.20;99.90;;;;;;5077324;28;20043;-74
2024/01/18 08:18:06;;;;;;;1.20;1.10;;;0.00;99.90;;;;;;5077197;28;20522;-74
2024/01/18 08:20:32;;;;;;;5.03;1.55;;;0.00;99.90;;;;;;5060409;28;20036;-74
2024/01/18 08:22:58;;;;;;;4.10;1.60;;;0.10;99.90;;;;;;5077459;28;20035;-74
2024/01/18 08:25:23;;;;;;;5.82;1.80;;;0.10;99.90;;;;;;5077357;28;20039;-74
2024/01/18 08:27:53;;;;;;;5.28;1.60;;;-0.10;99.90;;;;;;5077018;28;20495;-74
2024/01/18 08:30:19;;;;;;;2.28;1.35;;;-0.10;99.90;;;;;;5076778;28;20036;-74
2024/01/18 08:32:45;;;;;;;3.17;1.55;;;-0.10;99.90;;;;;;5095343;28;20039;-74
2024/01/18 08:35:11;;;;;;;1.90;0.98;;;-0.10;99.90;;;;;;5077035;28;20058;-74
2024/01/18 08:37:37;;;;;;;1.77;1.15;;;-0.10;99.90;;;;;;5076729;28;20125;-74
2024/01/18 08:40:04;;;;;;;4.07;1.05;;;-0.10;99.90;;;;;;5094973;28;20036;-74
2024/01/18 08:42:29;;;;;;;3.83;0.80;;;0.00;99.90;;;;;;5094858;28;20047;-74
2024/01/18 08:44:55;;;;;;;3.80;1.65;;;-0.10;99.90;;;;;;5077227;28;20044;-75
2024/01/18 08:47:22;;;;;;;2.42;1.10;;;-0.20;99.90;;;;;;5094821;28;20511;-74
2024/01/18 08:49:48;;;;;;;3.42;1.20;;;-0.10;99.90;;;;;;5059687;28;20489;-74
2024/01/18 08:52:13;;;;;;;2.20;1.15;;;-0.10;99.90;;;;;;5076407;28;20568;-74
2024/01/18 08:54:41;;;;;;;3.30;0.80;;;0.00;99.90;;;;;;5076601;28;20121;-74
2024/01/18 08:57:07;;;;;;;3.08;0.80;;;0.20;99.90;;;;;;5094474;28;20047;-74
2024/01/18 08:59:33;;;;;;;2.08;0.90;;;0.20;99.90;;;;;;5094385;28;20036;-73
2024/01/18 09:01:59;;;;;;;2.45;0.93;;;0.40;99.90;;;;;;5094781;28;20093;-74
2024/01/18 09:04:25;;;;;;;6.10;2.85;;;0.20;99.90;;;;;;5076436;28;20043;-74
2024/01/18 09:06:52;;;;;;;2.63;0.88;;;0.20;99.90;;;;;;5075584;28;20085;-74
2024/01/18 09:09:17;;;;;;;0.75;0.70;;;0.40;99.90;;;;;;5076461;28;20130;-73
2024/01/18 09:11:43;;;;;;;2.88;0.80;;;0.60;99.90;;;;;;5076277;28;20308;-74
2024/01/18 09:14:08;;;;;;;2.60;0.98;;;0.30;99.90;;;;;;5094318;28;20043;-73
2024/01/18 09:16:34;;;;;;;1.63;0.80;;;0.30;99.90;;;;;;5094470;28;20465;-72
2024/01/18 09:19:00;;;;;;;3.20;1.30;;;0.60;99.90;;;;;;5074270;28;20035;-73
2024/01/18 09:21:26;;;;;;;3.42;0.90;;;0.50;99.90;;;;;;5082544;28;20036;-73
2024/01/18 09:23:52;;;;;;;4.55;1.05;;;0.40;99.90;;;;;;5083994;28;20047;-72
2024/01/18 09:26:18;;;;;;;2.58;0.93;;;0.60;99.90;;;;;;5081748;28;20403;-73
2024/01/18 09:28:45;;;;;;;3.90;1.63;;;0.70;99.90;;;;;;5079891;28;20120;-71
2024/01/18 09:31:12;;;;;;;3.30;0.90;;;0.70;99.90;;;;;;5071436;28;20047;-72
2024/01/18 09:33:38;;;;;;;3.05;1.10;;;0.80;99.90;;;;;;5090853;28;20036;-72
2024/01/18 09:36:07;;;;;;;5.95;1.02;;;0.60;99.90;;;;;;5078108;28;20120;-75
2024/01/18 09:38:33;;;;;;;1.83;0.98;;;0.90;99.90;;;;;;5072625;28;20040;-74
2024/01/18 09:41:07;;;;;;;3.03;0.90;;;0.90;99.90;;;;;;5072093;28;20048;-74
2024/01/18 09:43:38;;;;;;;2.63;1.38;;;0.70;99.90;;;;;;5072618;28;20036;-74
2024/01/18 09:46:08;;;;;;;4.22;1.00;;;0.80;99.90;;;;;;5072240;28;20579;-74
2024/01/18 09:48:37;;;;;;;3.95;1.17;;;0.60;99.90;;;;;;5071973;28;20052;-74
2024/01/18 09:51:06;;;;;;;1.33;0.70;;;0.90;99.90;;;;;;5073261;28;20488;-74
2024/01/18 09:53:32;;;;;;;1.60;1.08;;;0.60;99.90;;;;;;5072311;28;20036;-74
2024/01/18 09:56:11;;;;;;;2.67;1.05;;;0.90;99.90;;;;;;5098314;23;20043;-73
2024/01/18 09:58:37;;;;;;;0.82;0.63;;;0.80;99.90;;;;;;5113165;28;20487;-73
2024/01/18 10:01:04;;;;;;;3.75;0.70;;;0.90;99.90;;;;;;5113980;28;20068;-74
2024/01/18 10:03:30;;;;;;;5.80;1.33;;;1.10;99.90;;;;;;5113906;28;20032;-73
2024/01/18 10:05:56;;;;;;;4.57;0.60;;;1.00;99.90;;;;;;5113720;28;20044;-73
2024/01/18 10:08:22;;;;;;;1.80;0.77;;;1.20;99.90;;;;;;5113019;28;20048;-73
2024/01/18 10:10:47;;;;;;;1.83;0.90;;;1.40;99.90;;;;;;5113692;28;20039;-73
2024/01/18 10:13:13;;;;;;;1.75;1.17;;;1.40;99.90;;;;;;5113869;28;20067;-73
2024/01/18 10:15:39;;;;;;;2.72;0.60;;;1.40;99.90;;;;;;5113543;28;20068;-73
2024/01/18 10:18:06;;;;;;;5.15;1.00;;;1.50;99.90;;;;;;5094536;28;20043;-73
2024/01/18 10:20:32;;;;;;;4.40;1.10;;;1.60;99.90;;;;;;5095034;28;20410;-73
2024/01/18 10:22:59;;;;;;;6.25;1.35;;;1.70;99.90;;;;;;5113435;28;20035;-73
2024/01/18 10:25:28;;;;;;;3.00;0.98;;;1.70;99.90;;;;;;5113483;28;20084;-73
2024/01/18 10:27:54;;;;;;;3.40;0.93;;;2.00;99.90;;;;;;5113273;28;20415;-73
2024/01/18 10:30:21;;;;;;;3.33;1.00;;;1.90;99.90;;;;;;5094821;28;20039;-73
2024/01/18 10:32:47;;;;;;;2.90;0.60;;;1.70;99.90;;;;;;5113255;28;20043;-73
2024/01/18 10:35:24;;;;;;;2.72;0.50;;;1.70;99.90;;;;;;5113065;28;20071;-73
2024/01/18 10:38:06;;;;;;;3.33;0.40;;;1.30;99.90;;;;;;5094831;28;20039;-73
2024/01/18 10:40:34;;;;;;;0.60;0.30;;;1.30;99.90;;;;;;5094793;28;20126;-73
2024/01/18 10:43:01;;;;;;;2.90;0.30;;;1.50;99.90;;;;;;5094812;28;20031;-73
2024/01/18 10:45:31;;;;;;;0.43;0.25;;;1.60;99.90;;;;;;5095001;28;20503;-73
2024/01/18 10:47:58;;;;;;;0.75;0.35;;;1.40;99.90;;;;;;5113138;28;20038;-73
2024/01/18 10:50:24;;;;;;;1.73;0.30;;;1.50;99.90;;;;;;5112886;28;20475;-73
2024/01/18 10:52:51;;;;;;;0.70;0.30;;;1.40;99.90;;;;;;5094872;28;20036;-73
2024/01/18 10:55:17;;;;;;;2.28;0.47;;;1.60;99.90;;;;;;5112746;28;20039;-73
2024/01/18 10:57:42;;;;;;;0.63;0.35;;;1.60;99.90;;;;;;5112575;28;20095;-73
2024/01/18 11:00:09;;;;;;;0.85;0.50;;;1.60;99.90;;;;;;5112549;28;20097;-73
2024/01/18 11:02:42;;;;;;;1.65;0.75;;;1.30;99.90;;;;;;5112872;28;20399;-73
2024/01/18 11:05:12;;;;;;;;;;;1.40;99.90;;;;;;5113055;28;20039;-73
2024/01/18 11:07:39;;;;;;;0.70;0.47;;;1.30;99.90;;;;;;5112538;28;20064;-73
2024/01/18 11:10:10;;;;;;;0.43;0.30;;;1.70;99.90;;;;;;5112521;28;20066;-73
2024/01/18 11:12:38;;;;;;;0.63;0.40;;;1.70;99.90;;;;;;5112492;28;20050;-72
2024/01/18 11:15:04;;;;;;;1.02;0.50;;;1.70;99.90;;;;;;5112370;28;20136;-74
2024/01/18 11:17:31;;;;;;;1.08;0.52;;;1.40;99.90;;;;;;5094301;28;20173;-73
2024/01/18 11:20:00;;;;;;;1.10;0.80;;;1.90;99.90;;;;;;5094020;28;20510;-73
2024/01/18 11:22:27;;;;;;;0.95;0.60;;;1.90;99.90;;;;;;5094143;28;20043;-74
2024/01/18 11:24:53;;;;;;;3.70;1.08;;;1.60;99.90;;;;;;5112356;28;20057;-73
2024/01/18 11:27:23;;;;;;;2.78;0.85;;;1.70;99.90;;;;;;5112071;28;20039;-73
2024/01/18 11:29:49;;;;;;;2.83;0.95;;;1.80;99.90;;;;;;5094013;28;20057;-73
2024/01/18 11:32:18;;;;;;;2.40;0.85;;;1.90;99.90;;;;;;5112325;28;20044;-73
2024/01/18 11:34:45;;;;;;;2.88;1.35;;;2.20;99.90;;;;;;5112215;28;20047;-73
2024/01/18 11:37:12;;;;;;;2.10;1.13;;;1.90;99.90;;;;;;5112464;28;20042;-73
2024/01/18 11:39:52;;;;;;;4.22;1.52;;;1.80;99.90;;;;;;5093830;28;20044;-73
2024/01/18 11:42:47;;;;;;;2.10;1.00;;;1.80;99.90;;;;;;5093917;28;20050;-73
2024/01/18 11:45:14;;;;;;;2.95;1.48;;;2.20;99.90;;;;;;5109465;28;20047;-73
2024/01/18 11:47:40;;;;;;;4.45;1.50;;;2.20;99.90;;;;;;5111899;28;20563;-73
2024/01/18 11:50:08;;;;;;;5.07;1.65;;;2.20;99.90;;;;;;5093614;28;20048;-73
2024/01/18 11:52:35;;;;;;;3.28;1.23;;;2.20;99.90;;;;;;5111889;28;20036;-73
2024/01/18 11:55:02;;;;;;;5.57;1.38;;;1.90;99.90;;;;;;5112088;28;20028;-73
2024/01/18 11:57:29;;;;;;;7.30;1.95;;;2.20;99.90;;;;;;5111764;28;20567;-73
2024/01/18 11:59:54;;;;;;;6.15;1.52;;;2.00;99.90;;;;;;5093736;28;20035;-73
2024/01/18 12:02:21;;;;;;;5.00;1.75;;;2.30;99.90;;;;;;5111951;28;20040;-73
2024/01/18 12:04:50;;;;;;;3.85;1.23;;;1.90;99.90;;;;;;5111808;28;20047;-73
2024/01/18 12:07:16;;;;;;;1.73;1.02;;;2.30;99.90;;;;;;5111879;28;20039;-73
2024/01/18 12:09:42;;;;;;;1.23;0.77;;;2.10;99.90;;;;;;5111691;28;20550;-73
2024/01/18 12:12:09;;;;;;;3.10;1.50;;;2.00;99.90;;;;;;5111893;28;20117;-73
2024/01/18 12:14:40;;;;;;;2.85;1.38;;;2.10;99.90;;;;;;5093501;28;20133;-73
2024/01/18 12:17:07;;;;;;;10.05;1.50;;;2.20;99.90;;;;;;5093413;28;20040;-73
2024/01/18 12:19:33;;;;;;;3.25;1.02;;;2.20;99.90;;;;;;5111586;28;20071;-73
2024/01/18 12:22:13;;;;;;;6.85;1.15;;;2.20;99.90;;;;;;5111714;28;20595;-73
2024/01/18 12:24:39;;;;;;;5.93;1.35;;;2.30;99.90;;;;;;5111826;28;20124;-73
2024/01/18 12:27:06;;;;;;;4.43;0.85;;;2.00;99.90;;;;;;5109473;28;20036;-73
2024/01/18 12:29:33;;;;;;;3.58;1.08;;;2.20;99.90;;;;;;5093012;28;20031;-73
2024/01/18 12:32:02;;;;;;;3.00;0.93;;;2.20;99.90;;;;;;5093292;28;20050;-73
2024/01/18 12:34:29;;;;;;;3.58;0.80;;;2.30;99.90;;;;;;5111814;28;20035;-73
2024/01/18 12:36:59;;;;;;;2.58;0.82;;;2.10;99.90;;;;;;5111460;28;20047;-73
2024/01/18 12:39:25;;;;;;;7.18;1.40;;;2.40;99.90;;;;;;5111571;28;20035;-73
2024/01/18 12:41:52;;;;;;;1.52;0.85;;;2.40;99.90;;;;;;5114232;28;20425;-73
2024/01/18 12:44:18;;;;;;;1.55;0.93;;;2.20;99.90;;;;;;5115248;28;20495;-73
2024/01/18 12:46:46;;;;;;;2.65;1.00;;;2.40;99.90;;;;;;5115029;28;20044;-73